sensor_id;sensor_type;location;lat;lon;timestamp;P1;durP1;ratioP1;P2;durP2;ratioP2
31760;SDS011;18335;51.486;7.562;2023-04-25T00:01:01;20.30;;;6.97;;
31760;SDS011;18335;51.486;7.562;2023-04-25T00:03:29;25.88;;;7.72;;
31760;SDS011;18335;51.486;7.562;2023-04-25T00:05:57;20.00;;;8.35;;
31760;SDS011;18335;51.486;7.562;2023-04-25T00:08:27;20.45;;;5.95;;
31760;SDS011;18335;51.486;7.562;2023-04-25T00:10:53;14.27;;;6.18;;
31760;SDS011;18335;51.486;7.562;2023-04-25T00:13:20;15.50;;;6.10;;
31760;SDS011;18335;51.486;7.562;2023-04-25T00:15:47;16.13;;;6.28;;
31760;SDS011;18335;51.486;7.562;2023-04-25T00:18:14;18.88;;;5.65;;
31760;SDS011;18335;51.486;7.562;2023-04-25T00:20:41;15.43;;;7.00;;
31760;SDS011;18335;51.486;7.562;2023-04-25T00:23:12;23.95;;;6.68;;
31760;SDS011;18335;51.486;7.562;2023-04-25T00:25:42;18.77;;;6.18;;
31760;SDS011;18335;51.486;7.562;2023-04-25T00:28:09;25.30;;;6.10;;
31760;SDS011;18335;51.486;7.562;2023-04-25T00:30:36;17.88;;;5.82;;
31760;SDS011;18335;51.486;7.562;2023-04-25T00:33:03;20.65;;;6.60;;
31760;SDS011;18335;51.486;7.562;2023-04-25T00:35:31;16.95;;;5.70;;
31760;SDS011;18335;51.486;7.562;2023-04-25T00:37:57;19.52;;;6.25;;
31760;SDS011;18335;51.486;7.562;2023-04-25T00:40:26;19.13;;;6.88;;
31760;SDS011;18335;51.486;7.562;2023-04-25T00:42:53;21.90;;;7.25;;
31760;SDS011;18335;51.486;7.562;2023-04-25T00:45:20;19.45;;;6.78;;
31760;SDS011;18335;51.486;7.562;2023-04-25T00:47:46;17.98;;;6.95;;
31760;SDS011;18335;51.486;7.562;2023-04-25T00:50:14;25.58;;;7.60;;
31760;SDS011;18335;51.486;7.562;2023-04-25T00:52:41;18.40;;;7.43;;
31760;SDS011;18335;51.486;7.562;2023-04-25T00:55:10;19.38;;;7.47;;
31760;SDS011;18335;51.486;7.562;2023-04-25T00:57:39;18.50;;;7.28;;
31760;SDS011;18335;51.486;7.562;2023-04-25T01:00:07;20.27;;;7.55;;
31760;SDS011;18335;51.486;7.562;2023-04-25T01:02:36;16.15;;;8.23;;
31760;SDS011;18335;51.486;7.562;2023-04-25T01:05:04;17.50;;;7.68;;
31760;SDS011;18335;51.486;7.562;2023-04-25T01:07:31;21.70;;;6.88;;
31760;SDS011;18335;51.486;7.562;2023-04-25T01:09:58;20.17;;;8.30;;
31760;SDS011;18335;51.486;7.562;2023-04-25T01:12:25;20.38;;;7.70;;
31760;SDS011;18335;51.486;7.562;2023-04-25T01:14:53;15.00;;;6.97;;
31760;SDS011;18335;51.486;7.562;2023-04-25T01:17:20;21.10;;;8.43;;
31760;SDS011;18335;51.486;7.562;2023-04-25T01:19:48;17.92;;;6.75;;
31760;SDS011;18335;51.486;7.562;2023-04-25T01:22:18;18.65;;;7.88;;
31760;SDS011;18335;51.486;7.562;2023-04-25T01:24:46;21.67;;;8.68;;
31760;SDS011;18335;51.486;7.562;2023-04-25T01:27:13;18.20;;;7.88;;
31760;SDS011;18335;51.486;7.562;2023-04-25T01:29:40;15.57;;;7.35;;
31760;SDS011;18335;51.486;7.562;2023-04-25T01:32:07;20.08;;;8.50;;
31760;SDS011;18335;51.486;7.562;2023-04-25T01:34:35;25.98;;;8.02;;
31760;SDS011;18335;51.486;7.562;2023-04-25T01:37:02;19.85;;;8.07;;
31760;SDS011;18335;51.486;7.562;2023-04-25T01:39:30;14.40;;;6.63;;
31760;SDS011;18335;51.486;7.562;2023-04-25T01:41:58;19.25;;;7.60;;
31760;SDS011;18335;51.486;7.562;2023-04-25T01:44:26;26.55;;;11.13;;
31760;SDS011;18335;51.486;7.562;2023-04-25T01:46:54;21.55;;;9.27;;
31760;SDS011;18335;51.486;7.562;2023-04-25T01:49:21;18.83;;;8.27;;
31760;SDS011;18335;51.486;7.562;2023-04-25T01:51:48;17.02;;;8.15;;
31760;SDS011;18335;51.486;7.562;2023-04-25T01:54:15;19.92;;;8.27;;
31760;SDS011;18335;51.486;7.562;2023-04-25T01:56:43;19.65;;;8.93;;
31760;SDS011;18335;51.486;7.562;2023-04-25T01:59:10;21.15;;;8.77;;
31760;SDS011;18335;51.486;7.562;2023-04-25T02:01:56;18.20;;;8.10;;
31760;SDS011;18335;51.486;7.562;2023-04-25T02:04:27;21.25;;;9.05;;
31760;SDS011;18335;51.486;7.562;2023-04-25T02:06:54;22.80;;;9.55;;
31760;SDS011;18335;51.486;7.562;2023-04-25T02:09:22;22.63;;;9.93;;
31760;SDS011;18335;51.486;7.562;2023-04-25T02:11:56;22.35;;;8.38;;
31760;SDS011;18335;51.486;7.562;2023-04-25T02:14:26;21.85;;;10.32;;
31760;SDS011;18335;51.486;7.562;2023-04-25T02:17:02;21.77;;;9.53;;
31760;SDS011;18335;51.486;7.562;2023-04-25T02:19:30;18.83;;;10.15;;
31760;SDS011;18335;51.486;7.562;2023-04-25T02:21:56;23.55;;;10.43;;
31760;SDS011;18335;51.486;7.562;2023-04-25T02:24:24;18.50;;;9.32;;
31760;SDS011;18335;51.486;7.562;2023-04-25T02:26:50;23.95;;;11.45;;
31760;SDS011;18335;51.486;7.562;2023-04-25T02:29:19;18.88;;;9.38;;
31760;SDS011;18335;51.486;7.562;2023-04-25T02:31:45;20.92;;;10.25;;
31760;SDS011;18335;51.486;7.562;2023-04-25T02:34:12;19.80;;;10.90;;
31760;SDS011;18335;51.486;7.562;2023-04-25T02:36:39;21.45;;;11.15;;
31760;SDS011;18335;51.486;7.562;2023-04-25T02:39:06;21.13;;;12.38;;
31760;SDS011;18335;51.486;7.562;2023-04-25T02:41:33;18.52;;;10.40;;
31760;SDS011;18335;51.486;7.562;2023-04-25T02:44:00;23.75;;;11.20;;
31760;SDS011;18335;51.486;7.562;2023-04-25T02:46:28;21.23;;;11.07;;
31760;SDS011;18335;51.486;7.562;2023-04-25T02:48:55;28.10;;;13.98;;
31760;SDS011;18335;51.486;7.562;2023-04-25T02:51:21;24.02;;;10.98;;
31760;SDS011;18335;51.486;7.562;2023-04-25T02:53:48;28.38;;;11.77;;
31760;SDS011;18335;51.486;7.562;2023-04-25T02:56:15;24.95;;;11.65;;
31760;SDS011;18335;51.486;7.562;2023-04-25T02:58:42;26.23;;;12.20;;
31760;SDS011;18335;51.486;7.562;2023-04-25T03:01:10;25.73;;;12.93;;
31760;SDS011;18335;51.486;7.562;2023-04-25T03:03:38;28.80;;;14.45;;
31760;SDS011;18335;51.486;7.562;2023-04-25T03:06:05;25.95;;;12.98;;
31760;SDS011;18335;51.486;7.562;2023-04-25T03:08:32;20.52;;;11.93;;
31760;SDS011;18335;51.486;7.562;2023-04-25T03:11:00;28.48;;;14.05;;
31760;SDS011;18335;51.486;7.562;2023-04-25T03:13:29;25.98;;;13.13;;
31760;SDS011;18335;51.486;7.562;2023-04-25T03:15:56;28.30;;;14.20;;
31760;SDS011;18335;51.486;7.562;2023-04-25T03:18:23;26.33;;;14.18;;
31760;SDS011;18335;51.486;7.562;2023-04-25T03:20:51;25.17;;;12.52;;
31760;SDS011;18335;51.486;7.562;2023-04-25T03:23:18;24.63;;;13.00;;
31760;SDS011;18335;51.486;7.562;2023-04-25T03:25:45;29.40;;;12.63;;
31760;SDS011;18335;51.486;7.562;2023-04-25T03:28:12;24.40;;;11.80;;
31760;SDS011;18335;51.486;7.562;2023-04-25T03:30:38;22.75;;;10.57;;
31760;SDS011;18335;51.486;7.562;2023-04-25T03:33:05;18.63;;;10.93;;
31760;SDS011;18335;51.486;7.562;2023-04-25T03:35:32;25.55;;;10.27;;
31760;SDS011;18335;51.486;7.562;2023-04-25T03:38:00;17.52;;;9.43;;
31760;SDS011;18335;51.486;7.562;2023-04-25T03:40:31;22.00;;;10.52;;
31760;SDS011;18335;51.486;7.562;2023-04-25T03:43:14;19.10;;;9.93;;
31760;SDS011;18335;51.486;7.562;2023-04-25T03:45:47;21.02;;;9.18;;
31760;SDS011;18335;51.486;7.562;2023-04-25T03:48:15;22.73;;;9.77;;
31760;SDS011;18335;51.486;7.562;2023-04-25T03:50:42;20.60;;;10.05;;
31760;SDS011;18335;51.486;7.562;2023-04-25T03:53:10;28.42;;;11.95;;
31760;SDS011;18335;51.486;7.562;2023-04-25T03:56:00;25.38;;;10.40;;
31760;SDS011;18335;51.486;7.562;2023-04-25T03:58:30;27.77;;;10.27;;
31760;SDS011;18335;51.486;7.562;2023-04-25T04:00:57;19.88;;;8.57;;
31760;SDS011;18335;51.486;7.562;2023-04-25T04:03:24;21.08;;;7.82;;
31760;SDS011;18335;51.486;7.562;2023-04-25T04:05:50;20.08;;;8.43;;
31760;SDS011;18335;51.486;7.562;2023-04-25T04:08:18;25.30;;;9.80;;
31760;SDS011;18335;51.486;7.562;2023-04-25T04:10:46;19.73;;;8.13;;
31760;SDS011;18335;51.486;7.562;2023-04-25T04:13:12;23.13;;;8.38;;
31760;SDS011;18335;51.486;7.562;2023-04-25T04:15:39;21.80;;;8.70;;
31760;SDS011;18335;51.486;7.562;2023-04-25T04:18:06;17.67;;;7.65;;
31760;SDS011;18335;51.486;7.562;2023-04-25T04:20:32;27.10;;;8.23;;
31760;SDS011;18335;51.486;7.562;2023-04-25T04:22:59;21.48;;;7.40;;
31760;SDS011;18335;51.486;7.562;2023-04-25T04:25:27;17.95;;;6.70;;
31760;SDS011;18335;51.486;7.562;2023-04-25T04:28:04;28.92;;;9.20;;
31760;SDS011;18335;51.486;7.562;2023-04-25T04:30:57;19.55;;;6.95;;
31760;SDS011;18335;51.486;7.562;2023-04-25T04:33:24;18.15;;;5.68;;
31760;SDS011;18335;51.486;7.562;2023-04-25T04:35:56;12.90;;;5.28;;
31760;SDS011;18335;51.486;7.562;2023-04-25T04:38:23;13.07;;;4.13;;
31760;SDS011;18335;51.486;7.562;2023-04-25T04:40:54;13.00;;;4.20;;
31760;SDS011;18335;51.486;7.562;2023-04-25T04:43:28;17.45;;;5.63;;
31760;SDS011;18335;51.486;7.562;2023-04-25T04:46:06;14.60;;;4.38;;
31760;SDS011;18335;51.486;7.562;2023-04-25T04:49:01;10.35;;;3.28;;
31760;SDS011;18335;51.486;7.562;2023-04-25T04:51:48;16.67;;;4.95;;
31760;SDS011;18335;51.486;7.562;2023-04-25T04:54:40;10.90;;;4.30;;
31760;SDS011;18335;51.486;7.562;2023-04-25T04:57:28;14.82;;;4.03;;
31760;SDS011;18335;51.486;7.562;2023-04-25T05:00:16;11.13;;;3.55;;
31760;SDS011;18335;51.486;7.562;2023-04-25T05:03:02;14.30;;;3.97;;
31760;SDS011;18335;51.486;7.562;2023-04-25T05:05:58;12.98;;;3.00;;
31760;SDS011;18335;51.486;7.562;2023-04-25T05:08:24;10.02;;;3.47;;
31760;SDS011;18335;51.486;7.562;2023-04-25T05:11:01;12.02;;;3.67;;
31760;SDS011;18335;51.486;7.562;2023-04-25T05:13:38;15.48;;;4.78;;
31760;SDS011;18335;51.486;7.562;2023-04-25T05:16:18;9.65;;;3.08;;
31760;SDS011;18335;51.486;7.562;2023-04-25T05:18:50;12.18;;;3.35;;
31760;SDS011;18335;51.486;7.562;2023-04-25T05:21:40;11.85;;;4.78;;
31760;SDS011;18335;51.486;7.562;2023-04-25T05:24:17;13.93;;;3.85;;
31760;SDS011;18335;51.486;7.562;2023-04-25T05:27:08;10.00;;;3.03;;
31760;SDS011;18335;51.486;7.562;2023-04-25T05:29:55;13.85;;;4.38;;
31760;SDS011;18335;51.486;7.562;2023-04-25T05:32:26;12.77;;;3.65;;
31760;SDS011;18335;51.486;7.562;2023-04-25T05:34:53;9.75;;;3.50;;
31760;SDS011;18335;51.486;7.562;2023-04-25T05:37:26;15.85;;;4.05;;
31760;SDS011;18335;51.486;7.562;2023-04-25T05:40:08;13.10;;;3.13;;
31760;SDS011;18335;51.486;7.562;2023-04-25T05:42:54;13.77;;;3.90;;
31760;SDS011;18335;51.486;7.562;2023-04-25T05:48:27;13.38;;;3.70;;
31760;SDS011;18335;51.486;7.562;2023-04-25T05:51:13;17.23;;;3.80;;
31760;SDS011;18335;51.486;7.562;2023-04-25T05:54:00;12.30;;;4.32;;
31760;SDS011;18335;51.486;7.562;2023-04-25T05:56:27;16.48;;;3.80;;
31760;SDS011;18335;51.486;7.562;2023-04-25T05:58:55;17.02;;;5.40;;
31760;SDS011;18335;51.486;7.562;2023-04-25T06:01:23;15.63;;;4.60;;
31760;SDS011;18335;51.486;7.562;2023-04-25T06:03:50;16.02;;;4.95;;
31760;SDS011;18335;51.486;7.562;2023-04-25T06:06:17;16.20;;;5.38;;
31760;SDS011;18335;51.486;7.562;2023-04-25T06:08:45;13.13;;;4.55;;
31760;SDS011;18335;51.486;7.562;2023-04-25T06:11:12;14.40;;;4.53;;
31760;SDS011;18335;51.486;7.562;2023-04-25T06:13:39;18.45;;;6.07;;
31760;SDS011;18335;51.486;7.562;2023-04-25T06:16:06;14.88;;;4.22;;
31760;SDS011;18335;51.486;7.562;2023-04-25T06:18:34;18.27;;;5.25;;
31760;SDS011;18335;51.486;7.562;2023-04-25T06:21:01;26.30;;;6.30;;
31760;SDS011;18335;51.486;7.562;2023-04-25T06:23:28;17.88;;;5.53;;
31760;SDS011;18335;51.486;7.562;2023-04-25T06:26:00;21.85;;;5.03;;
31760;SDS011;18335;51.486;7.562;2023-04-25T06:28:29;24.80;;;5.45;;
31760;SDS011;18335;51.486;7.562;2023-04-25T06:30:56;20.50;;;5.88;;
31760;SDS011;18335;51.486;7.562;2023-04-25T06:33:23;19.25;;;5.00;;
31760;SDS011;18335;51.486;7.562;2023-04-25T06:35:52;25.13;;;5.80;;
31760;SDS011;18335;51.486;7.562;2023-04-25T06:38:23;18.33;;;4.53;;
31760;SDS011;18335;51.486;7.562;2023-04-25T06:40:51;20.63;;;4.80;;
31760;SDS011;18335;51.486;7.562;2023-04-25T06:43:18;20.35;;;4.60;;
31760;SDS011;18335;51.486;7.562;2023-04-25T06:45:57;15.13;;;4.97;;
31760;SDS011;18335;51.486;7.562;2023-04-25T06:48:27;21.75;;;5.60;;
31760;SDS011;18335;51.486;7.562;2023-04-25T06:50:56;12.23;;;4.80;;
31760;SDS011;18335;51.486;7.562;2023-04-25T06:53:23;15.70;;;4.68;;
31760;SDS011;18335;51.486;7.562;2023-04-25T06:55:56;17.42;;;5.53;;
31760;SDS011;18335;51.486;7.562;2023-04-25T06:58:27;17.48;;;5.50;;
31760;SDS011;18335;51.486;7.562;2023-04-25T07:00:58;17.90;;;5.10;;
31760;SDS011;18335;51.486;7.562;2023-04-25T07:03:25;18.95;;;6.03;;
31760;SDS011;18335;51.486;7.562;2023-04-25T07:05:59;20.83;;;6.47;;
31760;SDS011;18335;51.486;7.562;2023-04-25T07:08:25;20.50;;;5.53;;
31760;SDS011;18335;51.486;7.562;2023-04-25T07:10:52;21.38;;;5.63;;
31760;SDS011;18335;51.486;7.562;2023-04-25T07:13:19;19.83;;;5.78;;
31760;SDS011;18335;51.486;7.562;2023-04-25T07:15:46;15.82;;;5.55;;
31760;SDS011;18335;51.486;7.562;2023-04-25T07:18:15;18.55;;;5.43;;
31760;SDS011;18335;51.486;7.562;2023-04-25T07:20:42;15.52;;;5.53;;
31760;SDS011;18335;51.486;7.562;2023-04-25T07:23:10;22.60;;;5.75;;
31760;SDS011;18335;51.486;7.562;2023-04-25T07:25:37;16.33;;;5.57;;
31760;SDS011;18335;51.486;7.562;2023-04-25T07:28:05;27.30;;;5.65;;
31760;SDS011;18335;51.486;7.562;2023-04-25T07:30:32;21.17;;;4.70;;
31760;SDS011;18335;51.486;7.562;2023-04-25T07:33:02;19.52;;;5.32;;
31760;SDS011;18335;51.486;7.562;2023-04-25T07:35:29;18.67;;;4.25;;
31760;SDS011;18335;51.486;7.562;2023-04-25T07:37:56;17.95;;;4.47;;
31760;SDS011;18335;51.486;7.562;2023-04-25T07:40:25;19.33;;;5.15;;
31760;SDS011;18335;51.486;7.562;2023-04-25T07:42:57;26.52;;;6.25;;
31760;SDS011;18335;51.486;7.562;2023-04-25T07:45:51;23.13;;;4.60;;
31760;SDS011;18335;51.486;7.562;2023-04-25T07:48:18;15.82;;;4.18;;
31760;SDS011;18335;51.486;7.562;2023-04-25T07:50:46;14.93;;;4.10;;
31760;SDS011;18335;51.486;7.562;2023-04-25T07:53:14;23.77;;;4.57;;
31760;SDS011;18335;51.486;7.562;2023-04-25T07:55:49;15.38;;;4.43;;
31760;SDS011;18335;51.486;7.562;2023-04-25T07:58:17;20.23;;;6.05;;
31760;SDS011;18335;51.486;7.562;2023-04-25T08:00:47;25.20;;;5.30;;
31760;SDS011;18335;51.486;7.562;2023-04-25T08:03:29;26.40;;;5.70;;
31760;SDS011;18335;51.486;7.562;2023-04-25T08:05:57;17.88;;;4.40;;
31760;SDS011;18335;51.486;7.562;2023-04-25T08:08:26;18.42;;;4.50;;
31760;SDS011;18335;51.486;7.562;2023-04-25T08:10:54;15.30;;;4.88;;
31760;SDS011;18335;51.486;7.562;2023-04-25T08:13:21;19.17;;;4.68;;
31760;SDS011;18335;51.486;7.562;2023-04-25T08:15:48;18.25;;;4.07;;
31760;SDS011;18335;51.486;7.562;2023-04-25T08:18:14;20.30;;;4.53;;
31760;SDS011;18335;51.486;7.562;2023-04-25T08:20:41;18.20;;;5.97;;
31760;SDS011;18335;51.486;7.562;2023-04-25T08:23:10;16.90;;;4.90;;
31760;SDS011;18335;51.486;7.562;2023-04-25T08:25:51;17.45;;;4.88;;
31760;SDS011;18335;51.486;7.562;2023-04-25T08:28:24;20.35;;;5.75;;
31760;SDS011;18335;51.486;7.562;2023-04-25T08:30:52;18.10;;;3.70;;
31760;SDS011;18335;51.486;7.562;2023-04-25T08:33:19;15.90;;;3.55;;
31760;SDS011;18335;51.486;7.562;2023-04-25T08:35:56;19.67;;;4.30;;
31760;SDS011;18335;51.486;7.562;2023-04-25T08:38:24;19.15;;;4.68;;
31760;SDS011;18335;51.486;7.562;2023-04-25T08:40:52;15.02;;;4.30;;
31760;SDS011;18335;51.486;7.562;2023-04-25T08:43:21;15.23;;;3.58;;
31760;SDS011;18335;51.486;7.562;2023-04-25T08:45:51;15.57;;;3.38;;
31760;SDS011;18335;51.486;7.562;2023-04-25T08:48:43;12.85;;;3.00;;
31760;SDS011;18335;51.486;7.562;2023-04-25T08:51:13;20.85;;;3.20;;
31760;SDS011;18335;51.486;7.562;2023-04-25T08:53:50;14.77;;;3.13;;
31760;SDS011;18335;51.486;7.562;2023-04-25T08:56:19;14.82;;;2.83;;
31760;SDS011;18335;51.486;7.562;2023-04-25T08:58:49;13.30;;;3.10;;
31760;SDS011;18335;51.486;7.562;2023-04-25T09:01:17;12.68;;;3.42;;
31760;SDS011;18335;51.486;7.562;2023-04-25T09:03:49;20.17;;;4.45;;
31760;SDS011;18335;51.486;7.562;2023-04-25T09:06:17;11.18;;;3.67;;
31760;SDS011;18335;51.486;7.562;2023-04-25T09:08:49;9.43;;;2.25;;
31760;SDS011;18335;51.486;7.562;2023-04-25T09:11:17;9.93;;;2.22;;
31760;SDS011;18335;51.486;7.562;2023-04-25T09:13:43;18.10;;;3.08;;
31760;SDS011;18335;51.486;7.562;2023-04-25T09:16:23;12.65;;;4.15;;
31760;SDS011;18335;51.486;7.562;2023-04-25T09:19:20;12.68;;;2.85;;
31760;SDS011;18335;51.486;7.562;2023-04-25T09:21:48;13.85;;;2.42;;
31760;SDS011;18335;51.486;7.562;2023-04-25T09:24:15;14.63;;;3.38;;
31760;SDS011;18335;51.486;7.562;2023-04-25T09:26:42;15.57;;;2.50;;
31760;SDS011;18335;51.486;7.562;2023-04-25T09:29:09;12.20;;;2.78;;
31760;SDS011;18335;51.486;7.562;2023-04-25T09:31:41;11.25;;;2.58;;
31760;SDS011;18335;51.486;7.562;2023-04-25T09:34:10;15.27;;;2.50;;
31760;SDS011;18335;51.486;7.562;2023-04-25T09:36:44;10.95;;;2.28;;
31760;SDS011;18335;51.486;7.562;2023-04-25T09:39:17;11.52;;;2.63;;
31760;SDS011;18335;51.486;7.562;2023-04-25T09:41:53;12.95;;;2.65;;
31760;SDS011;18335;51.486;7.562;2023-04-25T09:44:23;12.60;;;3.38;;
31760;SDS011;18335;51.486;7.562;2023-04-25T09:46:52;11.10;;;2.67;;
31760;SDS011;18335;51.486;7.562;2023-04-25T09:49:22;12.63;;;3.00;;
31760;SDS011;18335;51.486;7.562;2023-04-25T09:51:59;13.63;;;2.90;;
31760;SDS011;18335;51.486;7.562;2023-04-25T09:54:32;11.68;;;2.97;;
31760;SDS011;18335;51.486;7.562;2023-04-25T09:57:10;15.13;;;3.08;;
31760;SDS011;18335;51.486;7.562;2023-04-25T09:59:39;11.60;;;2.95;;
31760;SDS011;18335;51.486;7.562;2023-04-25T10:02:10;13.73;;;2.63;;
31760;SDS011;18335;51.486;7.562;2023-04-25T10:04:38;11.50;;;2.10;;
31760;SDS011;18335;51.486;7.562;2023-04-25T10:07:33;12.93;;;2.47;;
31760;SDS011;18335;51.486;7.562;2023-04-25T10:10:06;9.68;;;2.90;;
31760;SDS011;18335;51.486;7.562;2023-04-25T10:12:34;12.32;;;2.67;;
31760;SDS011;18335;51.486;7.562;2023-04-25T10:15:00;15.32;;;3.10;;
31760;SDS011;18335;51.486;7.562;2023-04-25T10:17:30;11.73;;;2.63;;
31760;SDS011;18335;51.486;7.562;2023-04-25T10:19:57;14.95;;;2.78;;
31760;SDS011;18335;51.486;7.562;2023-04-25T10:22:26;15.48;;;3.90;;
31760;SDS011;18335;51.486;7.562;2023-04-25T10:24:57;16.70;;;2.42;;
31760;SDS011;18335;51.486;7.562;2023-04-25T10:27:24;16.58;;;3.63;;
31760;SDS011;18335;51.486;7.562;2023-04-25T10:29:59;13.20;;;4.45;;
31760;SDS011;18335;51.486;7.562;2023-04-25T10:32:31;17.63;;;4.05;;
31760;SDS011;18335;51.486;7.562;2023-04-25T10:35:09;9.57;;;1.88;;
31760;SDS011;18335;51.486;7.562;2023-04-25T10:37:36;9.55;;;2.42;;
31760;SDS011;18335;51.486;7.562;2023-04-25T10:40:08;11.20;;;2.60;;
31760;SDS011;18335;51.486;7.562;2023-04-25T10:42:35;8.68;;;1.77;;
31760;SDS011;18335;51.486;7.562;2023-04-25T10:45:04;12.93;;;3.95;;
31760;SDS011;18335;51.486;7.562;2023-04-25T10:47:36;9.30;;;1.70;;
31760;SDS011;18335;51.486;7.562;2023-04-25T10:50:10;10.40;;;1.85;;
31760;SDS011;18335;51.486;7.562;2023-04-25T10:52:38;8.95;;;2.00;;
31760;SDS011;18335;51.486;7.562;2023-04-25T10:55:05;9.27;;;2.45;;
31760;SDS011;18335;51.486;7.562;2023-04-25T10:57:36;7.60;;;1.95;;
31760;SDS011;18335;51.486;7.562;2023-04-25T11:00:05;10.07;;;2.95;;
31760;SDS011;18335;51.486;7.562;2023-04-25T11:02:39;7.05;;;2.10;;
31760;SDS011;18335;51.486;7.562;2023-04-25T11:05:08;7.72;;;1.90;;
31760;SDS011;18335;51.486;7.562;2023-04-25T11:07:37;8.52;;;1.90;;
31760;SDS011;18335;51.486;7.562;2023-04-25T11:10:09;10.20;;;2.17;;
31760;SDS011;18335;51.486;7.562;2023-04-25T11:12:36;10.23;;;1.98;;
31760;SDS011;18335;51.486;7.562;2023-04-25T11:15:03;9.45;;;1.75;;
31760;SDS011;18335;51.486;7.562;2023-04-25T11:17:32;12.77;;;1.95;;
31760;SDS011;18335;51.486;7.562;2023-04-25T11:20:03;6.57;;;1.70;;
31760;SDS011;18335;51.486;7.562;2023-04-25T11:22:34;9.10;;;1.48;;
31760;SDS011;18335;51.486;7.562;2023-04-25T11:25:04;6.47;;;1.55;;
31760;SDS011;18335;51.486;7.562;2023-04-25T11:27:31;10.18;;;1.88;;
31760;SDS011;18335;51.486;7.562;2023-04-25T11:29:58;8.35;;;2.22;;
31760;SDS011;18335;51.486;7.562;2023-04-25T11:32:26;8.00;;;1.63;;
31760;SDS011;18335;51.486;7.562;2023-04-25T11:34:52;6.47;;;1.55;;
31760;SDS011;18335;51.486;7.562;2023-04-25T11:37:21;7.70;;;1.65;;
31760;SDS011;18335;51.486;7.562;2023-04-25T11:39:48;7.43;;;1.35;;
31760;SDS011;18335;51.486;7.562;2023-04-25T11:42:14;9.18;;;2.65;;
31760;SDS011;18335;51.486;7.562;2023-04-25T11:44:41;3.88;;;1.70;;
31760;SDS011;18335;51.486;7.562;2023-04-25T11:47:08;10.07;;;2.45;;
31760;SDS011;18335;51.486;7.562;2023-04-25T11:49:34;10.20;;;1.80;;
31760;SDS011;18335;51.486;7.562;2023-04-25T11:52:01;5.30;;;1.38;;
31760;SDS011;18335;51.486;7.562;2023-04-25T11:54:30;11.77;;;1.70;;
31760;SDS011;18335;51.486;7.562;2023-04-25T11:56:57;8.82;;;1.60;;
31760;SDS011;18335;51.486;7.562;2023-04-25T11:59:24;6.00;;;1.55;;
31760;SDS011;18335;51.486;7.562;2023-04-25T12:01:52;7.97;;;3.53;;
31760;SDS011;18335;51.486;7.562;2023-04-25T12:04:19;6.90;;;1.75;;
31760;SDS011;18335;51.486;7.562;2023-04-25T12:06:48;7.40;;;1.45;;
31760;SDS011;18335;51.486;7.562;2023-04-25T12:09:16;6.18;;;1.40;;
31760;SDS011;18335;51.486;7.562;2023-04-25T12:11:46;4.53;;;0.98;;
31760;SDS011;18335;51.486;7.562;2023-04-25T12:14:20;6.10;;;1.10;;
31760;SDS011;18335;51.486;7.562;2023-04-25T12:16:48;5.72;;;1.38;;
31760;SDS011;18335;51.486;7.562;2023-04-25T12:19:15;8.55;;;2.05;;
31760;SDS011;18335;51.486;7.562;2023-04-25T12:21:43;3.42;;;1.10;;
31760;SDS011;18335;51.486;7.562;2023-04-25T12:24:10;1.92;;;0.95;;
31760;SDS011;18335;51.486;7.562;2023-04-25T12:26:52;5.57;;;1.05;;
31760;SDS011;18335;51.486;7.562;2023-04-25T12:29:25;6.97;;;2.22;;
31760;SDS011;18335;51.486;7.562;2023-04-25T12:31:54;4.47;;;1.10;;
31760;SDS011;18335;51.486;7.562;2023-04-25T12:34:22;6.88;;;1.13;;
31760;SDS011;18335;51.486;7.562;2023-04-25T12:36:50;5.13;;;0.95;;
31760;SDS011;18335;51.486;7.562;2023-04-25T12:39:18;6.40;;;1.05;;
31760;SDS011;18335;51.486;7.562;2023-04-25T12:41:47;7.32;;;1.10;;
31760;SDS011;18335;51.486;7.562;2023-04-25T12:44:16;5.45;;;1.17;;
31760;SDS011;18335;51.486;7.562;2023-04-25T12:46:43;2.92;;;0.80;;
31760;SDS011;18335;51.486;7.562;2023-04-25T12:49:10;3.47;;;1.00;;
31760;SDS011;18335;51.486;7.562;2023-04-25T12:51:37;5.45;;;1.52;;
31760;SDS011;18335;51.486;7.562;2023-04-25T12:54:05;4.70;;;1.40;;
31760;SDS011;18335;51.486;7.562;2023-04-25T12:56:32;8.30;;;2.25;;
31760;SDS011;18335;51.486;7.562;2023-04-25T12:58:59;7.32;;;1.08;;
31760;SDS011;18335;51.486;7.562;2023-04-25T13:01:27;6.40;;;1.23;;
31760;SDS011;18335;51.486;7.562;2023-04-25T13:03:54;4.15;;;0.90;;
31760;SDS011;18335;51.486;7.562;2023-04-25T13:06:21;5.90;;;0.90;;
31760;SDS011;18335;51.486;7.562;2023-04-25T13:08:48;10.45;;;1.15;;
31760;SDS011;18335;51.486;7.562;2023-04-25T13:11:15;7.25;;;0.80;;
31760;SDS011;18335;51.486;7.562;2023-04-25T13:13:42;4.38;;;1.00;;
31760;SDS011;18335;51.486;7.562;2023-04-25T13:16:10;3.42;;;0.75;;
31760;SDS011;18335;51.486;7.562;2023-04-25T13:18:40;5.10;;;0.90;;
31760;SDS011;18335;51.486;7.562;2023-04-25T13:21:08;6.03;;;0.90;;
31760;SDS011;18335;51.486;7.562;2023-04-25T13:23:35;4.35;;;1.35;;
31760;SDS011;18335;51.486;7.562;2023-04-25T13:26:02;4.47;;;1.15;;
31760;SDS011;18335;51.486;7.562;2023-04-25T13:28:29;4.05;;;0.70;;
31760;SDS011;18335;51.486;7.562;2023-04-25T13:30:56;5.25;;;1.15;;
31760;SDS011;18335;51.486;7.562;2023-04-25T13:33:23;6.00;;;0.80;;
31760;SDS011;18335;51.486;7.562;2023-04-25T13:35:51;3.80;;;0.80;;
31760;SDS011;18335;51.486;7.562;2023-04-25T13:38:22;6.07;;;1.00;;
31760;SDS011;18335;51.486;7.562;2023-04-25T13:40:49;4.15;;;1.00;;
31760;SDS011;18335;51.486;7.562;2023-04-25T13:43:18;6.88;;;1.17;;
31760;SDS011;18335;51.486;7.562;2023-04-25T13:45:45;6.55;;;1.40;;
31760;SDS011;18335;51.486;7.562;2023-04-25T13:48:11;4.78;;;1.58;;
31760;SDS011;18335;51.486;7.562;2023-04-25T13:50:38;6.57;;;1.55;;
31760;SDS011;18335;51.486;7.562;2023-04-25T13:53:06;6.88;;;1.50;;
31760;SDS011;18335;51.486;7.562;2023-04-25T13:55:33;7.32;;;1.50;;
31760;SDS011;18335;51.486;7.562;2023-04-25T13:58:00;6.75;;;1.00;;
31760;SDS011;18335;51.486;7.562;2023-04-25T14:00:32;9.50;;;1.65;;
31760;SDS011;18335;51.486;7.562;2023-04-25T14:03:00;9.43;;;1.90;;
31760;SDS011;18335;51.486;7.562;2023-04-25T14:05:30;15.18;;;2.35;;
31760;SDS011;18335;51.486;7.562;2023-04-25T14:07:56;6.78;;;1.77;;
31760;SDS011;18335;51.486;7.562;2023-04-25T14:10:24;5.20;;;1.13;;
31760;SDS011;18335;51.486;7.562;2023-04-25T14:12:51;8.30;;;1.75;;
31760;SDS011;18335;51.486;7.562;2023-04-25T14:15:18;5.53;;;1.23;;
31760;SDS011;18335;51.486;7.562;2023-04-25T14:17:45;5.55;;;1.48;;
31760;SDS011;18335;51.486;7.562;2023-04-25T14:20:13;4.07;;;0.90;;
31760;SDS011;18335;51.486;7.562;2023-04-25T14:22:40;6.13;;;0.90;;
31760;SDS011;18335;51.486;7.562;2023-04-25T14:25:08;3.58;;;0.70;;
31760;SDS011;18335;51.486;7.562;2023-04-25T14:27:37;3.88;;;1.40;;
31760;SDS011;18335;51.486;7.562;2023-04-25T14:30:04;6.72;;;1.20;;
31760;SDS011;18335;51.486;7.562;2023-04-25T14:32:32;7.25;;;1.40;;
31760;SDS011;18335;51.486;7.562;2023-04-25T14:34:58;6.18;;;1.10;;
31760;SDS011;18335;51.486;7.562;2023-04-25T14:37:25;8.77;;;1.98;;
31760;SDS011;18335;51.486;7.562;2023-04-25T14:39:52;7.57;;;1.10;;
31760;SDS011;18335;51.486;7.562;2023-04-25T14:42:18;4.40;;;1.27;;
31760;SDS011;18335;51.486;7.562;2023-04-25T14:44:46;6.45;;;1.65;;
31760;SDS011;18335;51.486;7.562;2023-04-25T14:47:13;12.77;;;1.88;;
31760;SDS011;18335;51.486;7.562;2023-04-25T14:49:40;5.80;;;1.38;;
31760;SDS011;18335;51.486;7.562;2023-04-25T14:52:07;5.93;;;1.60;;
31760;SDS011;18335;51.486;7.562;2023-04-25T14:54:34;7.55;;;1.63;;